Time;durP1;ratioP1;P1;durP2;ratioP2;P2;SDS_P1;SDS_P2;PMS_P1;PMS_P2;Temp;Humidity;BMP_temperature;BMP_pressure;BME280_temperature;BME280_humidity;BME280_pressure;Samples;Min_cycle;Max_cycle;Signal;HPM_P1;HPM_P2
2022/12/02 00:00:15;;;;;;;25.17;16.63;;;;;;;3.39;100.00;152235.81;4993463;28;20860;-86
2022/12/02 00:03:01;;;;;;;28.10;17.20;;;;;;;3.39;100.00;152234.59;4987651;28;20445;-86
2022/12/02 00:05:48;;;;;;;26.90;18.53;;;;;;;3.39;100.00;152235.81;4996726;28;20413;-86
2022/12/02 00:08:35;;;;;;;27.63;17.40;;;;;;;3.37;100.00;152230.69;4996567;28;20433;-86
2022/12/02 00:11:26;;;;;;;27.13;17.67;;;;;;;3.36;100.00;152228.09;4990462;28;20489;-85
2022/12/02 00:14:15;;;;;;;23.77;17.63;;;;;;;3.33;100.00;152220.41;4991491;28;20596;-85
2022/12/02 00:17:02;;;;;;;27.13;17.30;;;;;;;3.37;100.00;152229.41;4977702;28;20438;-86
2022/12/02 00:19:48;;;;;;;25.20;16.70;;;;;;;3.37;100.00;152230.69;4973998;28;20811;-85
2022/12/02 00:22:33;;;;;;;27.93;17.87;;;;;;;3.36;100.00;152226.84;4974389;28;20474;-86
2022/12/02 00:25:18;;;;;;;24.57;17.60;;;;;;;3.34;100.00;152221.66;4975701;28;20441;-86
2022/12/02 00:28:04;;;;;;;26.27;17.60;;;;;;;3.38;100.00;152232.00;4968432;28;20796;-85
2022/12/02 00:30:50;;;;;;;23.03;16.30;;;;;;;3.33;100.00;152220.41;4975723;28;20458;-86
2022/12/02 00:33:38;;;;;;;24.40;17.27;;;;;;;3.37;100.00;152229.41;4977402;28;20461;-85
2022/12/02 00:36:23;;;;;;;27.10;17.70;;;;;;;3.34;100.00;152222.97;4993959;28;20409;-85
2022/12/02 00:39:08;;;;;;;28.63;18.40;;;;;;;3.30;100.00;152211.41;4955634;29;20453;-86
2022/12/02 00:41:53;;;;;;;28.50;18.00;;;;;;;3.33;100.00;152220.41;4954809;28;20610;-85
2022/12/02 00:47:42;;;;;;;26.73;18.30;;;;;;;3.36;100.00;152228.09;4974353;28;20442;-85
2022/12/02 00:50:29;;;;;;;27.77;18.37;;;;;;;3.34;100.00;152222.97;4982791;28;20425;-86
2022/12/02 00:53:14;;;;;;;27.37;17.70;;;;;;;3.33;100.00;152219.13;4970934;28;20588;-86
2022/12/02 00:55:59;;;;;;;28.60;18.90;;;;;;;3.34;100.00;152222.97;4960278;28;20605;-85
2022/12/02 00:58:45;;;;;;;26.47;19.10;;;;;;;3.32;100.00;152217.81;4963234;28;20448;-86
2022/12/02 01:01:30;;;;;;;26.27;18.40;;;;;;;3.32;100.00;152217.81;4982752;28;20464;-85
2022/12/02 01:04:15;;;;;;;24.60;17.40;;;;;;;3.29;100.00;152210.09;4972136;28;20953;-85
2022/12/02 01:07:02;;;;;;;25.70;17.50;;;;;;;3.28;100.00;152207.56;4975272;28;20449;-86
2022/12/02 01:09:48;;;;;;;28.03;19.17;;;;;;;3.26;100.00;152201.06;4967068;28;20457;-85
2022/12/02 01:12:33;;;;;;;23.23;17.90;;;;;;;3.27;100.00;152203.66;4987891;28;20576;-85
2022/12/02 01:15:18;;;;;;;26.77;18.17;;;;;;;3.32;100.00;152217.81;4994823;28;20456;-86
2022/12/02 01:18:04;;;;;;;25.87;17.53;;;;;;;3.28;100.00;152207.56;4990109;28;20461;-85
2022/12/02 01:20:49;;;;;;;27.03;18.07;;;;;;;3.29;100.00;152210.09;4974964;28;20454;-86
2022/12/02 01:23:35;;;;;;;25.47;17.67;;;;;;;3.27;100.00;152203.66;4991936;28;20476;-86
2022/12/02 01:26:21;;;;;;;26.27;17.30;;;;;;;3.29;100.00;152210.09;4995418;28;20429;-86
2022/12/02 01:29:06;;;;;;;27.63;17.90;;;;;;;3.27;100.00;152203.66;4990612;28;20463;-85
2022/12/02 01:31:54;;;;;;;27.77;18.73;;;;;;;3.29;100.00;152210.09;5001085;28;20445;-86
2022/12/02 01:34:41;;;;;;;27.50;18.53;;;;;;;3.26;100.00;152202.38;4985688;28;20448;-85
2022/12/02 01:37:26;;;;;;;26.27;19.23;;;;;;;3.27;100.00;152204.97;5014418;28;20904;-86
2022/12/02 01:40:14;;;;;;;26.03;18.43;;;;;;;3.28;100.00;152207.56;5006444;28;20453;-86
2022/12/02 01:42:59;;;;;;;30.87;19.70;;;;;;;3.35;100.00;152224.25;4987688;28;20520;-85
2022/12/02 01:45:45;;;;;;;30.40;20.70;;;;;;;3.29;100.00;152210.09;4994450;28;20445;-86
2022/12/02 01:48:30;;;;;;;29.20;18.03;;;;;;;3.26;100.00;152202.38;4973660;28;20464;-86
2022/12/02 01:51:16;;;;;;;26.80;19.07;;;;;;;3.26;100.00;152202.38;4990805;28;20581;-86
2022/12/02 01:54:01;;;;;;;30.73;18.00;;;;;;;3.28;100.00;152206.25;4991998;28;20437;-86
2022/12/02 01:56:48;;;;;;;32.50;18.50;;;;;;;3.27;100.00;152204.97;4994669;28;20765;-85
2022/12/02 01:59:33;;;;;;;28.37;18.27;;;;;;;3.34;100.00;152221.66;4989918;28;20475;-86
2022/12/02 02:02:26;;;;;;;26.50;18.27;;;;;;;3.29;100.00;152208.81;4981179;28;20476;-86
2022/12/02 02:05:14;;;;;;;27.20;17.70;;;;;;;3.26;100.00;152201.06;4992286;28;20483;-85
2022/12/02 02:08:04;;;;;;;24.97;18.60;;;;;;;3.29;100.00;152208.81;4984092;28;20469;-86
2022/12/02 02:10:49;;;;;;;28.93;19.13;;;;;;;3.28;100.00;152206.25;4978394;28;20560;-86
2022/12/02 02:13:37;;;;;;;31.10;19.37;;;;;;;3.28;100.00;152207.56;4994244;28;20452;-86
2022/12/02 02:16:22;;;;;;;30.87;19.60;;;;;;;3.30;100.00;152211.41;4968967;28;20441;-85
2022/12/02 02:19:12;;;;;;;29.60;17.40;;;;;;;3.29;100.00;152208.81;4992314;28;20588;-86
2022/12/02 02:21:58;;;;;;;32.40;18.87;;;;;;;3.26;100.00;152202.38;4979775;28;20453;-85
2022/12/02 02:24:46;;;;;;;33.27;19.17;;;;;;;3.27;100.00;152204.97;4969819;28;20432;-85
2022/12/02 02:27:31;;;;;;;31.27;19.60;;;;;;;3.24;100.00;152195.94;4991620;28;20992;-85
2022/12/02 02:30:17;;;;;;;25.10;18.43;;;;;;;3.24;100.00;152197.22;4974472;28;20398;-85
2022/12/02 02:33:05;;;;;;;28.90;20.10;;;;;;;3.27;100.00;152203.66;4992792;28;20457;-86
2022/12/02 02:35:50;;;;;;;26.07;18.30;;;;;;;3.26;100.00;152202.38;4978828;28;20542;-85
2022/12/02 02:38:36;;;;;;;27.90;18.10;;;;;;;3.28;100.00;152207.56;4999075;28;20444;-85
2022/12/02 02:41:23;;;;;;;28.50;18.10;;;;;;;3.28;100.00;152207.56;4967769;28;20454;-85
2022/12/02 02:44:09;;;;;;;28.80;18.63;;;;;;;3.29;100.00;152210.09;4977975;28;20548;-85
2022/12/02 02:46:55;;;;;;;27.90;19.20;;;;;;;3.28;100.00;152207.56;4978121;28;20444;-85
2022/12/02 02:49:40;;;;;;;27.17;18.60;;;;;;;3.28;100.00;152207.56;4978843;28;20999;-85
2022/12/02 02:52:26;;;;;;;23.63;17.17;;;;;;;3.29;100.00;152208.81;4977955;28;20532;-85
2022/12/02 02:55:15;;;;;;;26.23;18.90;;;;;;;3.30;100.00;152212.69;4982416;28;20531;-86
2022/12/02 02:58:09;;;;;;;28.37;19.30;;;;;;;3.26;100.00;152201.06;4994779;28;20434;-86
2022/12/02 03:00:57;;;;;;;28.43;18.93;;;;;;;3.24;100.00;152197.22;4978947;28;20465;-86
2022/12/02 03:03:45;;;;;;;28.17;18.60;;;;;;;3.26;100.00;152201.06;4977478;28;20484;-86
2022/12/02 03:06:34;;;;;;;26.00;17.30;;;;;;;3.26;100.00;152201.06;4982471;28;20870;-86
2022/12/02 03:09:21;;;;;;;29.50;19.47;;;;;;;3.24;100.00;152195.94;4991060;28;20469;-86
2022/12/02 03:12:07;;;;;;;29.03;18.10;;;;;;;3.28;100.00;152206.25;4977555;28;20460;-85
2022/12/02 03:14:54;;;;;;;28.03;18.80;;;;;;;3.23;100.00;152194.63;4981220;28;20484;-86
2022/12/02 03:17:39;;;;;;;27.10;18.37;;;;;;;3.23;100.00;152194.63;4996506;28;21046;-85
2022/12/02 03:20:25;;;;;;;26.13;17.50;;;;;;;3.26;100.00;152201.06;4972715;28;20401;-85
2022/12/02 03:23:10;;;;;;;30.50;18.90;;;;;;;3.26;100.00;152201.06;4987526;28;20448;-86
2022/12/02 03:25:56;;;;;;;25.60;17.10;;;;;;;3.25;100.00;152199.81;4995880;28;20432;-85
2022/12/02 03:28:42;;;;;;;26.40;18.73;;;;;;;3.27;100.00;152203.66;4987419;28;20448;-86
2022/12/02 03:31:29;;;;;;;21.90;16.33;;;;;;;3.26;100.00;152202.38;4991751;28;20453;-85
2022/12/02 03:34:14;;;;;;;25.67;19.43;;;;;;;3.26;100.00;152202.38;4992439;28;20457;-86
2022/12/02 03:36:59;;;;;;;30.20;18.83;;;;;;;3.25;100.00;152198.53;4995109;28;20805;-86
2022/12/02 03:39:45;;;;;;;25.83;17.83;;;;;;;3.28;100.00;152207.56;4997402;28;20511;-86
2022/12/02 03:42:30;;;;;;;26.83;16.73;;;;;;;3.27;100.00;152203.66;4989892;28;20467;-86
2022/12/02 03:45:17;;;;;;;28.27;18.23;;;;;;;3.29;100.00;152210.09;4990679;28;20464;-86
2022/12/02 03:48:05;;;;;;;24.07;18.60;;;;;;;3.24;100.00;152197.22;4991544;28;20448;-86
2022/12/02 03:50:51;;;;;;;25.20;17.80;;;;;;;3.24;100.00;152197.22;4990390;28;20448;-86
2022/12/02 03:53:37;;;;;;;24.50;16.30;;;;;;;3.26;100.00;152202.38;4999907;28;20802;-86
2022/12/02 03:56:22;;;;;;;23.43;17.97;;;;;;;3.24;100.00;152197.22;5003545;28;20769;-86
2022/12/02 03:59:08;;;;;;;23.83;16.70;;;;;;;3.27;100.00;152203.66;4991355;28;20872;-86
2022/12/02 04:01:53;;;;;;;27.13;18.33;;;;;;;3.23;100.00;152194.63;4976093;28;20465;-86
2022/12/02 04:04:40;;;;;;;28.30;16.80;;;;;;;3.25;100.00;152199.81;4987890;28;20464;-86
2022/12/02 04:07:26;;;;;;;24.57;16.63;;;;;;;3.25;100.00;152198.53;4975833;28;20524;-86
2022/12/02 04:10:12;;;;;;;34.10;19.13;;;;;;;3.25;100.00;152199.81;4973136;28;20398;-85
2022/12/02 04:12:57;;;;;;;22.37;16.17;;;;;;;3.25;100.00;152199.81;4946529;28;1175177;-86
2022/12/02 04:15:42;;;;;;;22.93;17.53;;;;;;;3.25;100.00;152199.81;4994741;28;20286;-86
2022/12/02 04:18:29;;;;;;;28.70;18.40;;;;;;;3.25;100.00;152199.81;4976680;28;20519;-86
2022/12/02 04:21:15;;;;;;;28.20;18.90;;;;;;;3.26;100.00;152202.38;4990881;28;20555;-86
2022/12/02 04:24:00;;;;;;;25.13;16.90;;;;;;;3.22;100.00;152190.81;4992165;28;20449;-85
2022/12/02 04:26:46;;;;;;;28.67;17.57;;;;;;;3.23;100.00;152194.63;4991249;28;20874;-85
2022/12/02 04:29:31;;;;;;;31.83;18.90;;;;;;;3.20;100.00;152186.97;4992549;28;20927;-86
2022/12/02 04:32:16;;;;;;;30.53;18.60;;;;;;;3.19;100.00;152184.38;4985460;28;20903;-86
2022/12/02 04:35:01;;;;;;;28.23;18.80;;;;;;;3.21;100.00;152189.50;4989881;28;20436;-86
2022/12/02 04:37:50;;;;;;;28.63;19.00;;;;;;;3.22;100.00;152192.09;4991857;28;20532;-86
2022/12/02 04:40:36;;;;;;;23.90;17.63;;;;;;;3.20;100.00;152185.66;4991080;28;20464;-86
2022/12/02 04:43:21;;;;;;;25.00;17.47;;;;;;;3.19;100.00;152184.38;4991672;28;20983;-86
2022/12/02 04:46:06;;;;;;;27.87;17.53;;;;;;;3.18;100.00;152180.53;4991839;28;20580;-86
2022/12/02 04:48:52;;;;;;;25.13;18.17;;;;;;;3.17;100.00;152177.94;4994211;28;20978;-86
2022/12/02 04:51:37;;;;;;;24.80;18.40;;;;;;;3.19;100.00;152183.06;4985527;28;20586;-86
2022/12/02 04:54:24;;;;;;;29.80;17.60;;;;;;;3.20;100.00;152185.66;4992014;28;20896;-86
2022/12/02 04:57:09;;;;;;;24.03;17.70;;;;;;;3.16;100.00;152175.34;4993479;28;20405;-86
2022/12/02 04:59:54;;;;;;;26.00;18.60;;;;;;;3.16;100.00;152176.66;4989092;28;20452;-86
2022/12/02 05:02:40;;;;;;;27.80;18.67;;;;;;;3.14;100.00;152171.50;4992368;28;20488;-86
2022/12/02 05:05:25;;;;;;;28.03;18.33;;;;;;;3.20;100.00;152185.66;4996618;28;20564;-86
2022/12/02 05:08:10;;;;;;;28.00;18.20;;;;;;;3.14;100.00;152171.50;4995135;28;20476;-86
2022/12/02 05:10:57;;;;;;;28.27;18.70;;;;;;;3.19;100.00;152184.38;4993804;28;20452;-85
2022/12/02 05:13:42;;;;;;;28.73;17.33;;;;;;;3.18;100.00;152181.78;4989154;28;20428;-86
2022/12/02 05:16:28;;;;;;;27.90;17.87;;;;;;;3.19;100.00;152183.06;4996485;28;20456;-87
2022/12/02 05:19:13;;;;;;;26.17;17.27;;;;;;;3.17;100.00;152177.94;4994802;28;20440;-86
2022/12/02 05:21:58;;;;;;;29.10;19.60;;;;;;;3.18;100.00;152181.78;4994927;28;20492;-86
2022/12/02 05:24:46;;;;;;;28.33;18.63;;;;;;;3.22;100.00;152192.09;4977984;28;20464;-86
2022/12/02 05:27:33;;;;;;;26.00;17.70;;;;;;;3.19;100.00;152184.38;4974977;28;20401;-86
2022/12/02 05:30:19;;;;;;;28.60;17.57;;;;;;;3.19;100.00;152184.38;4992495;28;20468;-86
2022/12/02 05:33:04;;;;;;;29.80;18.47;;;;;;;3.18;100.00;152181.78;4994002;28;20437;-86
2022/12/02 05:35:50;;;;;;;29.70;19.30;;;;;;;3.18;100.00;152181.78;4993885;28;20463;-85
2022/12/02 05:38:35;;;;;;;28.37;18.00;;;;;;;3.15;100.00;152174.03;4994017;28;20539;-86
2022/12/02 05:41:20;;;;;;;31.13;17.30;;;;;;;3.17;100.00;152177.94;4995388;28;20437;-85
2022/12/02 05:44:19;;;;;;;25.43;17.83;;;;;;;3.18;100.00;152181.78;4978546;28;20927;-86
2022/12/02 05:47:10;;;;;;;26.20;17.60;;;;;;;3.15;100.00;152174.03;4995585;28;20515;-86
2022/12/02 05:49:56;;;;;;;27.87;17.37;;;;;;;3.17;100.00;152177.94;4979660;28;20405;-86
2022/12/02 05:52:43;;;;;;;30.77;18.03;;;;;;;3.16;100.00;152176.66;4992279;28;20803;-86
2022/12/02 05:55:28;;;;;;;23.83;17.57;;;;;;;3.22;100.00;152192.09;4994333;28;20545;-86
2022/12/02 05:58:14;;;;;;;27.30;17.57;;;;;;;3.23;100.00;152194.63;4996051;28;20461;-86
2022/12/02 06:01:01;;;;;;;32.93;19.33;;;;;;;3.19;100.00;152183.06;4992993;28;20515;-86
2022/12/02 06:03:46;;;;;;;26.10;17.90;;;;;;;3.20;100.00;152185.66;4994390;28;20863;-86
2022/12/02 06:06:33;;;;;;;26.10;18.83;;;;;;;3.21;100.00;152188.22;4993486;28;20452;-86
2022/12/02 06:09:20;;;;;;;26.20;18.70;;;;;;;3.15;100.00;152174.03;4996571;28;20448;-86
2022/12/02 06:12:11;;;;;;;23.57;17.27;;;;;;;3.14;100.00;152171.50;5002612;28;20592;-85
2022/12/02 06:14:57;;;;;;;27.20;17.00;;;;;;;3.19;100.00;152184.38;4977855;28;20548;-85
2022/12/02 06:17:43;;;;;;;24.87;14.83;;;;;;;3.20;100.00;152185.66;4992766;28;20472;-85
2022/12/02 06:20:33;;;;;;;25.03;16.47;;;;;;;3.19;100.00;152184.38;4987683;28;20460;-76
2022/12/02 06:23:20;;;;;;;26.40;17.63;;;;;;;3.17;100.00;152179.22;4989757;28;20531;-85
2022/12/02 06:26:05;;;;;;;25.00;16.60;;;;;;;3.18;100.00;152181.78;4989756;28;20460;-86
2022/12/02 06:28:53;;;;;;;23.03;15.73;;;;;;;3.17;100.00;152179.22;4974646;28;20780;-86
2022/12/02 06:31:41;;;;;;;25.00;16.63;;;;;;;3.12;100.00;152166.38;4991747;28;20468;-86
2022/12/02 06:34:38;;;;;;;26.20;15.57;;;;;;;3.12;100.00;152166.38;4991356;28;20444;-86
2022/12/02 06:37:29;;;;;;;23.50;15.93;;;;;;;3.22;100.00;152190.81;4991030;28;20507;-86
2022/12/02 06:40:23;;;;;;;26.47;17.47;;;;;;;3.17;100.00;152179.22;4990961;28;20456;-76
2022/12/02 06:43:13;;;;;;;21.77;15.20;;;;;;;3.15;100.00;152174.03;4991954;28;20480;-76
2022/12/02 06:45:58;;;;;;;24.30;15.00;;;;;;;3.14;100.00;152170.22;4976672;28;20434;-77
2022/12/02 06:48:49;;;;;;;25.50;15.80;;;;;;;3.19;100.00;152184.38;4992965;28;20687;-77
2022/12/02 06:51:36;;;;;;;27.13;17.70;;;;;;;3.21;100.00;152189.50;4968636;28;20623;-77
2022/12/02 06:54:24;;;;;;;29.43;16.57;;;;;;;3.22;100.00;152192.09;4992277;28;20456;-87
2022/12/02 06:57:17;;;;;;;22.50;15.80;;;;;;;3.20;100.00;152186.97;4991993;28;20569;-87
2022/12/02 07:00:10;;;;;;;31.50;18.87;;;;;;;3.22;100.00;152192.09;4990840;28;20452;-77
2022/12/02 07:02:56;;;;;;;28.60;17.47;;;;;;;3.22;100.00;152192.09;4991837;28;20477;-77
2022/12/02 07:05:44;;;;;;;24.20;15.23;;;;;;;3.23;100.00;152194.63;4993886;28;20421;-77
2022/12/02 07:08:31;;;;;;;23.10;14.23;;;;;;;3.24;100.00;152197.22;4984954;28;20514;-77
2022/12/02 07:11:48;;;;;;;28.00;16.47;;;;;;;3.25;100.00;152199.81;4989931;28;20473;-77
2022/12/02 07:14:30;;;;;;;27.07;16.93;;;;;;;3.26;100.00;152201.06;4991960;28;20452;-76
2022/12/02 07:17:31;;;;;;;25.80;16.53;;;;;;;3.28;100.00;152206.25;4992521;28;20433;-77
2022/12/02 07:20:28;;;;;;;30.13;16.30;;;;;;;3.27;100.00;152204.97;4986298;28;20456;-77
2022/12/02 07:23:16;;;;;;;26.33;16.53;;;;;;;3.27;100.00;152204.97;4987958;28;20480;-77
2022/12/02 07:26:03;;;;;;;24.93;16.77;;;;;;;3.28;100.00;152207.56;4991577;28;20465;-86
2022/12/02 07:28:50;;;;;;;27.30;18.03;;;;;;;3.26;100.00;152202.38;4987541;28;20460;-87
2022/12/02 07:31:36;;;;;;;27.10;16.97;;;;;;;3.26;100.00;152201.06;4977843;28;20424;-87
2022/12/02 07:34:21;;;;;;;29.23;17.10;;;;;;;3.23;100.00;152194.63;4993661;28;20433;-87
2022/12/02 07:37:06;;;;;;;24.30;16.70;;;;;;;3.26;100.00;152202.38;4990323;28;20633;-87
2022/12/02 07:39:52;;;;;;;24.80;16.47;;;;;;;3.26;100.00;152202.38;4992048;28;20504;-87
2022/12/02 07:42:38;;;;;;;27.60;17.20;;;;;;;3.28;100.00;152206.25;4974731;28;20453;-87
2022/12/02 07:45:24;;;;;;;28.20;17.70;;;;;;;3.27;100.00;152203.66;4986777;28;20448;-86
2022/12/02 07:48:11;;;;;;;28.63;17.37;;;;;;;3.27;100.00;152204.97;4970394;28;20449;-87
2022/12/02 07:50:56;;;;;;;27.10;17.57;;;;;;;3.30;100.00;152211.41;5003292;28;20412;-87
2022/12/02 07:53:42;;;;;;;28.40;18.23;;;;;;;3.29;100.00;152210.09;5012313;28;21058;-87
2022/12/02 07:56:27;;;;;;;26.37;18.03;;;;;;;3.28;100.00;152206.25;5004423;28;20959;-77
2022/12/02 07:59:14;;;;;;;31.23;17.50;;;;;;;3.27;100.00;152204.97;4990658;28;20956;-77
2022/12/02 08:02:00;;;;;;;25.73;17.77;;;;;;;3.27;100.00;152204.97;4991996;28;20448;-77
2022/12/02 08:04:45;;;;;;;25.27;15.97;;;;;;;3.27;100.00;152204.97;4991846;28;20504;-77
2022/12/02 08:07:31;;;;;;;29.50;18.27;;;;;;;3.26;100.00;152201.06;4996532;28;20576;-77
2022/12/02 08:10:17;;;;;;;27.70;19.40;;;;;;;3.27;100.00;152203.66;4992870;28;20429;-77
2022/12/02 08:13:02;;;;;;;26.87;17.80;;;;;;;3.28;100.00;152207.56;4991816;28;20813;-87
2022/12/02 08:15:48;;;;;;;30.03;17.20;;;;;;;3.27;100.00;152204.97;4978665;28;20433;-87
2022/12/02 08:18:34;;;;;;;30.43;17.80;;;;;;;3.29;100.00;152210.09;4992034;28;20539;-87
2022/12/02 08:21:19;;;;;;;28.20;17.90;;;;;;;3.30;100.00;152212.69;4992989;28;20510;-87
2022/12/02 08:24:05;;;;;;;36.20;22.50;;;;;;;3.35;100.00;152224.25;4978476;28;20472;-88
2022/12/02 08:26:51;;;;;;;27.50;17.77;;;;;;;3.37;100.00;152230.69;4988180;28;20444;-87
2022/12/02 08:29:36;;;;;;;74.40;40.43;;;;;;;3.42;100.00;152243.56;5001062;28;20780;-88
2022/12/02 08:32:23;;;;;;;36.97;23.67;;;;;;;3.43;100.00;152246.16;4994482;28;20469;-87
2022/12/02 08:35:09;;;;;;;29.33;18.77;;;;;;;3.38;100.00;152233.28;4985986;28;20533;-87
2022/12/02 08:37:54;;;;;;;32.70;19.37;;;;;;;3.41;100.00;152241.00;4976800;28;20505;-87
2022/12/02 08:40:40;;;;;;;24.13;17.03;;;;;;;3.40;100.00;152237.13;4987487;28;20584;-88
2022/12/02 08:43:25;;;;;;;30.60;20.03;;;;;;;3.38;100.00;152233.28;4992974;28;20476;-87
2022/12/02 08:46:12;;;;;;;35.17;24.13;;;;;;;3.43;100.00;152246.16;4997115;28;20437;-87
2022/12/02 08:48:58;;;;;;;23.83;17.57;;;;;;;3.42;100.00;152242.25;4993196;28;20472;-87
2022/12/02 08:51:44;;;;;;;27.70;21.10;;;;;;;3.41;100.00;152241.00;4992266;28;20440;-87
2022/12/02 08:54:29;;;;;;;31.40;18.90;;;;;;;3.42;100.00;152243.56;4989864;28;20448;-87
2022/12/02 08:57:15;;;;;;;23.17;15.47;;;;;;;3.37;100.00;152230.69;4991707;28;21063;-87
2022/12/02 09:00:01;;;;;;;28.70;18.00;;;;;;;3.39;100.00;152235.81;5003721;28;20431;-88
2022/12/02 09:02:47;;;;;;;40.37;28.43;;;;;;;3.40;100.00;152238.41;4992317;28;20555;-87
2022/12/02 09:05:33;;;;;;;30.37;19.60;;;;;;;3.42;100.00;152242.25;4989391;28;20523;-87
2022/12/02 09:08:18;;;;;;;29.10;18.80;;;;;;;3.40;100.00;152237.13;4992884;28;20957;-87
2022/12/02 09:11:04;;;;;;;28.00;17.63;;;;;;;3.40;100.00;152237.13;4993285;28;20460;-87
2022/12/02 09:13:49;;;;;;;29.43;19.00;;;;;;;3.43;100.00;152246.16;4976613;28;20491;-88
2022/12/02 09:16:34;;;;;;;28.20;18.10;;;;;;;3.45;100.00;152251.28;4978513;28;20954;-88
2022/12/02 09:19:20;;;;;;;24.27;15.33;;;;;;;3.42;100.00;152242.25;4988040;28;20453;-87
2022/12/02 09:22:07;;;;;;;23.93;16.10;;;;;;;3.43;100.00;152246.16;4987673;28;20452;-88
2022/12/02 09:24:52;;;;;;;24.27;14.93;;;;;;;3.45;100.00;152251.28;4993585;28;20449;-87
2022/12/02 09:27:37;;;;;;;22.80;14.57;;;;;;;3.44;100.00;152248.69;4989764;28;20444;-87
2022/12/02 09:30:23;;;;;;;22.70;13.17;;;;;;;3.42;100.00;152243.56;4982388;28;20535;-88
2022/12/02 09:33:08;;;;;;;19.93;13.40;;;;;;;3.49;100.00;152260.31;4985969;28;20465;-88
2022/12/02 09:35:54;;;;;;;23.30;13.43;;;;;;;3.50;100.00;152264.16;4991069;28;20448;-88
2022/12/02 09:38:40;;;;;;;23.83;14.10;;;;;;;3.50;100.00;152264.16;4985549;28;20514;-88
2022/12/02 09:41:26;;;;;;;24.80;13.80;;;;;;;3.53;100.00;152271.88;4985696;28;20939;-88
2022/12/02 09:44:11;;;;;;;19.90;12.50;;;;;;;3.52;100.00;152269.28;4978051;28;20464;-88
2022/12/02 09:46:56;;;;;;;20.10;11.90;;;;;;;3.47;100.00;152256.44;4974332;28;20414;-88
2022/12/02 09:49:44;;;;;;;18.87;12.67;;;;;;;3.44;100.00;152248.69;4988462;28;20452;-88
2022/12/02 09:52:29;;;;;;;18.73;12.97;;;;;;;3.47;100.00;152255.13;4992842;28;20449;-88
2022/12/02 09:55:17;;;;;;;18.13;12.80;;;;;;;3.48;100.00;152259.00;5013125;28;20432;-88
2022/12/02 09:58:10;;;;;;;18.27;11.67;;;;;;;3.46;100.00;152252.59;4995893;28;20469;-88
2022/12/02 10:00:56;;;;;;;16.53;12.03;;;;;;;3.47;100.00;152255.13;4993016;28;20448;-87
2022/12/02 10:03:42;;;;;;;19.83;12.77;;;;;;;3.48;100.00;152257.72;4993833;28;20464;-87
2022/12/02 10:06:28;;;;;;;14.87;11.73;;;;;;;3.47;100.00;152256.44;4993431;28;20539;-88
2022/12/02 10:09:17;;;;;;;12.87;10.20;;;;;;;3.48;100.00;152257.72;4986084;28;20536;-87
2022/12/02 10:12:03;;;;;;;17.40;11.47;;;;;;;3.47;100.00;152255.13;4992064;28;20493;-87
2022/12/02 10:14:50;;;;;;;17.20;11.17;;;;;;;3.49;100.00;152261.59;4985320;28;20512;-87
2022/12/02 10:17:35;;;;;;;15.23;11.40;;;;;;;3.48;100.00;152257.72;4992684;28;20425;-87
2022/12/02 10:20:23;;;;;;;15.83;11.50;;;;;;;3.50;100.00;152264.16;4989819;28;20929;-87
2022/12/02 10:23:12;;;;;;;17.67;12.37;;;;;;;3.50;100.00;152262.84;4994096;28;20516;-87
2022/12/02 10:26:12;;;;;;;16.73;10.57;;;;;;;3.50;100.00;152262.84;4994786;28;20453;-87
2022/12/02 10:29:04;;;;;;;14.30;9.43;;;;;;;3.50;100.00;152264.16;4993177;28;20955;-87
2022/12/02 10:31:54;;;;;;;13.77;9.10;;;;;;;3.49;100.00;152260.31;4960011;28;20410;-87
2022/12/02 10:34:39;;;;;;;15.67;10.60;;;;;;;3.44;100.00;152248.69;4979729;28;20845;-87
2022/12/02 10:37:26;;;;;;;14.50;9.70;;;;;;;3.44;100.00;152248.69;4983099;28;20519;-87
2022/12/02 10:40:15;;;;;;;13.33;9.30;;;;;;;3.46;100.00;152253.88;4992735;28;20484;-87
2022/12/02 10:43:08;;;;;;;10.53;8.40;;;;;;;3.48;100.00;152259.00;4991049;28;20476;-87
2022/12/02 10:45:58;;;;;;;12.13;8.00;;;;;;;3.46;100.00;152253.88;4991193;28;20527;-87
2022/12/02 10:48:43;;;;;;;11.30;9.20;;;;;;;3.50;100.00;152264.16;4986083;28;20443;-88
2022/12/02 10:51:28;;;;;;;14.40;10.23;;;;;;;3.46;100.00;152253.88;4989930;28;20877;-88
2022/12/02 10:54:22;;;;;;;13.13;10.13;;;;;;;3.43;100.00;152244.84;4991472;28;20448;-87
2022/12/02 10:57:14;;;;;;;11.20;8.53;;;;;;;3.44;100.00;152247.44;4989984;28;20829;-89
2022/12/02 11:00:03;;;;;;;13.77;9.23;;;;;;;3.50;100.00;152264.16;4990669;28;20453;-89
2022/12/02 11:02:52;;;;;;;13.63;8.03;;;;;;;3.49;100.00;152260.31;4995622;28;20464;-87
2022/12/02 11:05:37;;;;;;;11.73;8.50;;;;;;;3.48;100.00;152259.00;4991989;28;20511;-87
2022/12/02 11:08:25;;;;;;;14.10;9.87;;;;;;;3.48;100.00;152259.00;4989576;28;20794;-87
2022/12/02 11:11:13;;;;;;;12.00;8.80;;;;;;;3.48;100.00;152259.00;4990466;28;20853;-87
2022/12/02 11:13:59;;;;;;;13.87;8.50;;;;;;;3.52;100.00;152269.28;4988981;28;20499;-87
2022/12/02 11:17:06;;;;;;;10.87;7.90;;;;;;;3.51;100.00;152265.44;4987947;28;20959;-87
2022/12/02 11:19:53;;;;;;;11.83;8.60;;;;;;;3.50;100.00;152262.84;4990252;28;20502;-88
2022/12/02 11:23:07;;;;;;;12.00;7.83;;;;;;;3.51;100.00;152265.44;4994405;28;20452;-88
2022/12/02 11:25:58;;;;;;;11.07;7.50;;;;;;;3.46;100.00;152252.59;4990390;28;20460;-88
2022/12/02 11:29:16;;;;;;;12.10;7.73;;;;;;;3.46;100.00;152253.88;4992654;28;20448;-88
2022/12/02 11:32:02;;;;;;;8.97;7.70;;;;;;;3.45;100.00;152251.28;4988241;28;20457;-87
2022/12/02 11:34:49;;;;;;;14.07;8.17;;;;;;;3.45;100.00;152251.28;4989796;28;20437;-88
2022/12/02 11:37:43;;;;;;;9.33;7.43;;;;;;;3.48;100.00;152257.72;4990467;28;20766;-88
2022/12/02 11:40:59;;;;;;;12.63;7.73;;;;;;;3.50;100.00;152264.16;4992004;28;20456;-88
2022/12/02 11:43:54;;;;;;;8.50;6.37;;;;;;;3.51;100.00;152265.44;4976501;28;20523;-88
2022/12/02 11:46:44;;;;;;;11.07;7.50;;;;;;;3.55;100.00;152275.72;4992547;28;21155;-88
2022/12/02 11:49:32;;;;;;;12.37;8.50;;;;;;;3.51;100.00;152266.75;4992008;28;20472;-88
2022/12/02 11:52:21;;;;;;;9.73;6.63;;;;;;;3.52;100.00;152268.03;4995362;28;20471;-88
2022/12/02 11:55:13;;;;;;;10.03;6.67;;;;;;;3.57;100.00;152282.16;4984236;28;20454;-88
2022/12/02 11:57:59;;;;;;;7.43;5.83;;;;;;;3.56;100.00;152278.31;4977419;28;20596;-88
2022/12/02 12:01:00;;;;;;;9.73;7.17;;;;;;;3.56;100.00;152279.63;4991638;28;20948;-88
2022/12/02 12:03:47;;;;;;;9.00;6.70;;;;;;;3.52;100.00;152269.28;4973117;28;20461;-88
2022/12/02 12:06:34;;;;;;;12.30;7.77;;;;;;;3.53;100.00;152271.88;4980344;28;20456;-88
2022/12/02 12:09:19;;;;;;;9.73;7.20;;;;;;;3.53;100.00;152270.59;4985291;28;20448;-87
2022/12/02 12:12:14;;;;;;;10.57;7.07;;;;;;;3.53;100.00;152271.88;5007743;28;20458;-87
2022/12/02 12:15:01;;;;;;;10.93;7.03;;;;;;;3.51;100.00;152265.44;4992698;28;20449;-88
2022/12/02 12:17:47;;;;;;;9.07;6.60;;;;;;;3.47;100.00;152256.44;4978827;28;20436;-88
2022/12/02 12:20:45;;;;;;;8.90;7.30;;;;;;;3.50;100.00;152264.16;4988245;28;20440;-88
2022/12/02 12:23:33;;;;;;;10.70;6.77;;;;;;;3.47;100.00;152255.13;4989279;28;20475;-88
2022/12/02 12:26:31;;;;;;;8.37;5.73;;;;;;;3.44;100.00;152248.69;4994903;28;20449;-89
2022/12/02 12:29:18;;;;;;;6.87;5.70;;;;;;;3.41;100.00;152241.00;4992481;28;20568;-88
2022/12/02 12:32:04;;;;;;;9.73;6.30;;;;;;;3.36;100.00;152228.09;4989253;28;20467;-88
2022/12/02 12:34:49;;;;;;;8.00;6.63;;;;;;;3.42;100.00;152242.25;4987009;28;20854;-88
2022/12/02 12:37:35;;;;;;;9.10;6.13;;;;;;;3.44;100.00;152247.44;4986380;28;20509;-88
2022/12/02 12:40:20;;;;;;;9.63;6.80;;;;;;;3.44;100.00;152248.69;4992381;28;20510;-88
2022/12/02 12:43:05;;;;;;;8.17;6.10;;;;;;;3.42;100.00;152243.56;4989934;28;20472;-89
2022/12/02 12:45:52;;;;;;;7.60;6.17;;;;;;;3.47;100.00;152255.13;4986578;28;20476;-89